createdAt,value
2019-03-26T00:00:15.160Z,1004.65
2019-03-26T00:01:15.202Z,1004.66
2019-03-26T00:02:15.240Z,1004.69
2019-03-26T00:03:15.273Z,1004.71
2019-03-26T00:04:15.324Z,1004.69
2019-03-26T00:05:15.347Z,1004.70
2019-03-26T00:06:15.385Z,1004.70
2019-03-26T00:07:15.422Z,1004.73
2019-03-26T00:08:15.461Z,1004.75
2019-03-26T00:09:15.496Z,1004.72
2019-03-26T00:10:15.534Z,1004.73
2019-03-26T00:11:15.579Z,1004.82
2019-03-26T00:12:15.608Z,1004.85
2019-03-26T00:13:15.646Z,1004.86
2019-03-26T00:14:15.684Z,1004.87
2019-03-26T00:15:15.722Z,1004.88
2019-03-26T00:16:15.770Z,1004.85
2019-03-26T00:17:15.797Z,1004.82
2019-03-26T00:18:15.837Z,1004.86
2019-03-26T00:19:15.871Z,1004.85
2019-03-26T00:20:15.909Z,1004.84
2019-03-26T00:21:15.947Z,1004.90
2019-03-26T00:22:15.984Z,1004.83
2019-03-26T00:23:16.024Z,1004.85
2019-03-26T00:24:16.059Z,1004.88
2019-03-26T00:25:16.097Z,1004.86
2019-03-26T00:26:16.133Z,1004.84
2019-03-26T00:27:16.171Z,1004.86
2019-03-26T00:28:16.213Z,1004.81
2019-03-26T00:29:16.249Z,1004.85
2019-03-26T00:30:16.283Z,1004.88
2019-03-26T00:31:16.320Z,1004.87
2019-03-26T00:32:16.358Z,1004.91
2019-03-26T00:33:16.396Z,1004.92
2019-03-26T00:34:19.631Z,1004.95
2019-03-26T00:35:16.473Z,1004.94
2019-03-26T00:36:16.508Z,1004.96
2019-03-26T00:37:16.547Z,1004.91
2019-03-26T00:38:16.583Z,1004.93
2019-03-26T00:39:16.622Z,1004.89
2019-03-26T00:40:16.662Z,1004.87
2019-03-26T00:41:16.697Z,1004.89
2019-03-26T00:42:16.732Z,1004.90
2019-03-26T00:43:16.773Z,1004.90
2019-03-26T00:44:16.812Z,1004.91
2019-03-26T00:45:16.895Z,1004.91
2019-03-26T00:46:16.884Z,1004.97
2019-03-26T00:47:16.921Z,1004.99
2019-03-26T00:48:16.960Z,1005.00
2019-03-26T00:49:16.998Z,1005.01
2019-03-26T00:50:17.043Z,1005.01
2019-03-26T00:51:17.073Z,1005.03
2019-03-26T00:52:17.109Z,1005.02
2019-03-26T00:53:17.148Z,1005.02
2019-03-26T00:54:17.185Z,1004.99
2019-03-26T00:55:22.386Z,1004.99
2019-03-26T00:56:17.258Z,1005.03
2019-03-26T00:57:17.346Z,1005.05
2019-03-26T00:58:17.340Z,1005.09
2019-03-26T00:59:17.376Z,1005.03
2019-03-26T01:00:17.409Z,1005.12
2019-03-26T01:01:17.447Z,1005.11
2019-03-26T01:02:17.483Z,1005.12
2019-03-26T01:03:17.522Z,1005.09
2019-03-26T01:04:17.610Z,1005.12
2019-03-26T01:05:17.599Z,1005.10
2019-03-26T01:06:17.634Z,1005.13
2019-03-26T01:07:17.683Z,1005.14
2019-03-26T01:08:17.710Z,1005.19
2019-03-26T01:09:17.747Z,1005.20
2019-03-26T01:10:17.783Z,1005.22
2019-03-26T01:11:17.822Z,1005.21
2019-03-26T01:12:17.865Z,1005.20
2019-03-26T01:13:17.898Z,1005.26
2019-03-26T01:14:17.935Z,1005.28
2019-03-26T01:15:17.971Z,1005.25
2019-03-26T01:16:18.060Z,1005.26
2019-03-26T01:17:18.047Z,1005.27
2019-03-26T01:18:18.087Z,1005.25
2019-03-26T01:19:18.124Z,1005.26
2019-03-26T01:20:18.159Z,1005.26
2019-03-26T01:21:18.201Z,1005.25
2019-03-26T01:22:18.237Z,1005.25
2019-03-26T01:23:18.274Z,1005.27
2019-03-26T01:24:18.312Z,1005.26
2019-03-26T01:25:18.349Z,1005.25
2019-03-26T01:26:18.387Z,1005.24
2019-03-26T01:27:18.438Z,1005.25
2019-03-26T01:28:18.458Z,1005.22
2019-03-26T01:29:18.499Z,1005.25
2019-03-26T01:30:18.541Z,1005.18
2019-03-26T01:31:18.572Z,1005.20
2019-03-26T01:32:18.609Z,1005.22
2019-03-26T01:33:18.649Z,1005.26
2019-03-26T01:34:18.687Z,1005.25
2019-03-26T01:35:18.721Z,1005.31
2019-03-26T01:36:18.759Z,1005.27
2019-03-26T01:37:18.797Z,1005.31
2019-03-26T01:38:18.834Z,1005.28
2019-03-26T01:39:18.887Z,1005.28
2019-03-26T01:40:18.911Z,1005.28
2019-03-26T01:41:18.946Z,1005.27
2019-03-26T01:42:18.985Z,1005.27
2019-03-26T01:43:19.024Z,1005.31
2019-03-26T01:44:19.058Z,1005.32
2019-03-26T01:45:19.097Z,1005.30
2019-03-26T01:46:19.133Z,1005.30
2019-03-26T01:47:19.172Z,1005.27
2019-03-26T01:48:19.206Z,1005.28
2019-03-26T01:49:19.247Z,1005.30
2019-03-26T01:50:19.283Z,1005.32
2019-03-26T01:51:19.321Z,1005.30
2019-03-26T01:52:19.357Z,1005.29
2019-03-26T01:53:20.452Z,1005.31
2019-03-26T01:54:19.434Z,1005.30
2019-03-26T01:55:19.469Z,1005.31
2019-03-26T01:56:19.506Z,1005.35
2019-03-26T01:57:19.542Z,1005.37
2019-03-26T01:58:19.580Z,1005.37
2019-03-26T01:59:19.618Z,1005.38
2019-03-26T02:00:19.655Z,1005.40
2019-03-26T02:01:19.698Z,1005.41
2019-03-26T02:02:19.731Z,1005.40
2019-03-26T02:03:19.765Z,1005.41
2019-03-26T02:04:19.801Z,1005.40
2019-03-26T02:05:19.847Z,1005.40
2019-03-26T02:06:19.885Z,1005.41
2019-03-26T02:07:19.914Z,1005.37
2019-03-26T02:08:19.949Z,1005.37
2019-03-26T02:09:20.040Z,1005.36
2019-03-26T02:10:20.025Z,1005.37
2019-03-26T02:11:20.062Z,1005.37
2019-03-26T02:12:20.137Z,1005.33
2019-03-26T02:13:20.138Z,1005.32
2019-03-26T02:14:20.172Z,1005.38
2019-03-26T02:15:20.215Z,1005.37
2019-03-26T02:16:20.246Z,1005.37
2019-03-26T02:17:20.288Z,1005.35
2019-03-26T02:18:20.319Z,1005.41
2019-03-26T02:19:20.358Z,1005.35
2019-03-26T02:20:20.545Z,1005.36
2019-03-26T02:21:20.432Z,1005.35
2019-03-26T02:22:20.476Z,1005.37
2019-03-26T02:23:20.507Z,1005.38
2019-03-26T02:24:20.543Z,1005.39
2019-03-26T02:25:20.580Z,1005.35
2019-03-26T02:26:20.617Z,1005.38
2019-03-26T02:27:20.654Z,1005.41
2019-03-26T02:28:20.693Z,1005.42
2019-03-26T02:29:20.727Z,1005.41
2019-03-26T02:30:20.767Z,1005.41
2019-03-26T02:31:20.802Z,1005.42
2019-03-26T02:32:20.837Z,1005.41
2019-03-26T02:33:20.876Z,1005.42
2019-03-26T02:34:20.913Z,1005.41
2019-03-26T02:35:20.949Z,1005.39
2019-03-26T02:36:20.984Z,1005.36
2019-03-26T02:37:21.021Z,1005.39
2019-03-26T02:38:21.064Z,1005.38
2019-03-26T02:39:21.095Z,1005.39
2019-03-26T02:40:21.130Z,1005.42
2019-03-26T02:41:21.177Z,1005.44
2019-03-26T02:42:21.206Z,1005.41
2019-03-26T02:43:21.245Z,1005.42
2019-03-26T02:44:21.278Z,1005.44
2019-03-26T02:45:21.335Z,1005.48
2019-03-26T02:46:21.353Z,1005.46
2019-03-26T02:47:21.390Z,1005.47
2019-03-26T02:48:21.434Z,1005.45
2019-03-26T02:49:21.462Z,1005.46
2019-03-26T02:50:21.510Z,1005.47
2019-03-26T02:51:21.538Z,1005.48
2019-03-26T02:52:21.573Z,1005.56
2019-03-26T02:53:21.611Z,1005.55
2019-03-26T02:54:21.646Z,1005.52
2019-03-26T02:55:21.687Z,1005.54
2019-03-26T02:56:21.721Z,1005.56
2019-03-26T02:57:21.759Z,1005.55
2019-03-26T02:58:21.795Z,1005.54
2019-03-26T02:59:21.836Z,1005.52
2019-03-26T03:00:21.870Z,1005.51
2019-03-26T03:01:21.909Z,1005.50
2019-03-26T03:02:21.941Z,1005.49
2019-03-26T03:03:21.997Z,1005.47
2019-03-26T03:04:22.017Z,1005.52
2019-03-26T03:05:35.190Z,1005.51
2019-03-26T03:06:22.092Z,1005.57
2019-03-26T03:07:22.133Z,1005.58
2019-03-26T03:08:22.161Z,1005.54
2019-03-26T03:09:22.199Z,1005.57
2019-03-26T03:10:22.243Z,1005.53
2019-03-26T03:11:22.279Z,1005.50
2019-03-26T03:12:22.309Z,1005.54
2019-03-26T03:13:22.356Z,1005.55
2019-03-26T03:14:22.387Z,1005.55
2019-03-26T03:15:22.424Z,1005.51
2019-03-26T03:16:22.457Z,1005.54
2019-03-26T03:17:22.494Z,1005.50
2019-03-26T03:18:22.534Z,1005.47
2019-03-26T03:19:22.569Z,1005.57
2019-03-26T03:20:22.609Z,1005.53
2019-03-26T03:21:22.643Z,1005.58
2019-03-26T03:22:22.681Z,1005.53
2019-03-26T03:23:22.720Z,1005.52
2019-03-26T03:24:22.760Z,1005.54
2019-03-26T03:25:22.793Z,1005.49
2019-03-26T03:26:22.829Z,1005.50
2019-03-26T03:27:22.866Z,1005.54
2019-03-26T03:28:22.903Z,1005.51
2019-03-26T03:29:22.941Z,1005.53
2019-03-26T03:30:22.993Z,1005.55
2019-03-26T03:31:23.017Z,1005.55
2019-03-26T03:32:23.060Z,1005.57
2019-03-26T03:33:23.101Z,1005.55
2019-03-26T03:34:23.132Z,1005.59
2019-03-26T03:35:23.165Z,1005.56
2019-03-26T03:36:23.221Z,1005.58
2019-03-26T03:37:23.266Z,1005.55
2019-03-26T03:38:23.276Z,1005.53
2019-03-26T03:39:23.316Z,1005.58
2019-03-26T03:40:23.348Z,1005.55
2019-03-26T03:41:23.385Z,1005.58
2019-03-26T03:42:23.421Z,1005.61
2019-03-26T03:43:23.459Z,1005.62
2019-03-26T03:44:23.497Z,1005.63
2019-03-26T03:45:23.533Z,1005.68
2019-03-26T03:46:23.581Z,1005.67
2019-03-26T03:47:23.609Z,1005.73
2019-03-26T03:48:23.648Z,1005.74
2019-03-26T03:49:23.693Z,1005.68
2019-03-26T03:50:23.719Z,1005.71
2019-03-26T03:51:23.760Z,1005.71
2019-03-26T03:52:23.794Z,1005.69
2019-03-26T03:53:23.836Z,1005.72
2019-03-26T03:54:23.870Z,1005.75
2019-03-26T03:55:23.909Z,1005.77
2019-03-26T03:56:23.943Z,1005.75
2019-03-26T03:57:23.980Z,1005.73
2019-03-26T03:58:24.018Z,1005.73
2019-03-26T03:59:24.061Z,1005.75
2019-03-26T04:00:24.093Z,1005.75
2019-03-26T04:01:24.130Z,1005.74
2019-03-26T04:02:24.169Z,1005.76
2019-03-26T04:03:24.207Z,1005.79
2019-03-26T04:04:24.240Z,1005.77
2019-03-26T04:05:24.299Z,1005.77
2019-03-26T04:06:24.317Z,1005.74
2019-03-26T04:07:24.356Z,1005.75
2019-03-26T04:08:24.393Z,1005.73
2019-03-26T04:09:24.427Z,1005.76
2019-03-26T04:10:24.464Z,1005.78
2019-03-26T04:11:24.502Z,1005.75
2019-03-26T04:12:24.538Z,1005.79
2019-03-26T04:13:24.576Z,1005.77
2019-03-26T04:14:24.626Z,1005.76
2019-03-26T04:15:24.651Z,1005.77
2019-03-26T04:16:24.690Z,1005.75
2019-03-26T04:17:24.724Z,1005.72
2019-03-26T04:18:24.769Z,1005.70
2019-03-26T04:19:24.798Z,1005.74
2019-03-26T04:20:24.835Z,1005.73
2019-03-26T04:21:24.874Z,1005.70
2019-03-26T04:22:24.962Z,1005.76
2019-03-26T04:23:24.948Z,1005.77
2019-03-26T04:24:24.989Z,1005.78
2019-03-26T04:25:25.029Z,1005.75
2019-03-26T04:26:25.061Z,1005.78
2019-03-26T04:27:25.105Z,1005.81
2019-03-26T04:28:25.135Z,1005.81
2019-03-26T04:29:25.177Z,1005.87
2019-03-26T04:30:25.215Z,1005.89
2019-03-26T04:31:25.249Z,1005.89
2019-03-26T04:32:25.283Z,1005.89
2019-03-26T04:33:25.329Z,1005.88
2019-03-26T04:34:25.392Z,1005.93
2019-03-26T04:35:25.432Z,1005.94
2019-03-26T04:36:26.642Z,1005.96
2019-03-26T04:37:25.475Z,1005.91
2019-03-26T04:38:25.510Z,1005.90
2019-03-26T04:39:25.559Z,1005.94
2019-03-26T04:40:25.583Z,1006.03
2019-03-26T04:41:25.621Z,1006.02
2019-03-26T04:42:25.657Z,1006.06
2019-03-26T04:43:25.704Z,1006.07
2019-03-26T04:44:25.731Z,1006.05
2019-03-26T04:45:25.775Z,1006.03
2019-03-26T04:46:25.806Z,1006.10
2019-03-26T04:47:25.843Z,1006.11
2019-03-26T04:48:25.880Z,1006.15
2019-03-26T04:49:25.919Z,1006.10
2019-03-26T04:50:25.955Z,1006.11
2019-03-26T04:51:25.993Z,1006.09
2019-03-26T04:52:26.030Z,1006.11
2019-03-26T04:53:26.069Z,1006.07
2019-03-26T04:54:26.157Z,1006.10
2019-03-26T04:55:26.141Z,1006.08
2019-03-26T04:56:26.180Z,1006.12
2019-03-26T04:57:26.215Z,1006.11
2019-03-26T04:58:26.254Z,1006.13
2019-03-26T04:59:26.293Z,1006.14
2019-03-26T05:00:26.335Z,1006.18
2019-03-26T05:01:26.365Z,1006.19
2019-03-26T05:02:26.404Z,1006.15
2019-03-26T05:03:26.442Z,1006.21
2019-03-26T05:04:26.490Z,1006.14
2019-03-26T05:05:26.520Z,1006.19
2019-03-26T05:06:37.493Z,1006.16
2019-03-26T05:07:26.590Z,1006.17
2019-03-26T05:08:26.629Z,1006.13
2019-03-26T05:09:26.665Z,1006.14
2019-03-26T05:10:26.702Z,1006.14
2019-03-26T05:11:26.740Z,1006.12
2019-03-26T05:12:26.776Z,1006.14
2019-03-26T05:13:26.831Z,1006.09
2019-03-26T05:14:26.851Z,1006.10
2019-03-26T05:15:26.901Z,1006.04
2019-03-26T05:16:26.924Z,1006.08
2019-03-26T05:17:26.963Z,1006.05
2019-03-26T05:18:26.999Z,1006.05
2019-03-26T05:19:27.037Z,1006.08
2019-03-26T05:20:27.074Z,1006.06
2019-03-26T05:21:27.112Z,1006.04
2019-03-26T05:22:27.169Z,1006.09
2019-03-26T05:23:27.202Z,1006.05
2019-03-26T05:24:27.234Z,1006.08
2019-03-26T05:25:27.262Z,1006.07
2019-03-26T05:26:27.299Z,1006.10
2019-03-26T05:27:27.342Z,1006.13
2019-03-26T05:28:27.372Z,1006.14
2019-03-26T05:29:27.415Z,1006.11
2019-03-26T05:30:27.448Z,1006.10
2019-03-26T05:31:27.486Z,1006.12
2019-03-26T05:32:27.523Z,1006.13
2019-03-26T05:33:27.559Z,1006.12
2019-03-26T05:34:27.603Z,1006.14
2019-03-26T05:35:27.637Z,1006.14
2019-03-26T05:36:27.679Z,1006.16
2019-03-26T05:37:27.717Z,1006.18
2019-03-26T05:38:27.755Z,1006.17
2019-03-26T05:39:27.785Z,1006.18
2019-03-26T05:40:27.820Z,1006.22
2019-03-26T05:41:27.858Z,1006.24
2019-03-26T05:42:27.900Z,1006.21
2019-03-26T05:43:27.934Z,1006.23
2019-03-26T05:44:27.972Z,1006.20
2019-03-26T05:45:28.007Z,1006.24
2019-03-26T05:46:28.055Z,1006.21
2019-03-26T05:47:28.084Z,1006.23
2019-03-26T05:48:28.123Z,1006.19
2019-03-26T05:49:28.156Z,1006.18
2019-03-26T05:50:28.205Z,1006.17
2019-03-26T05:51:28.237Z,1006.18
2019-03-26T05:52:28.277Z,1006.17
2019-03-26T05:53:28.305Z,1006.21
2019-03-26T05:54:28.350Z,1006.16
2019-03-26T05:55:28.382Z,1006.18
2019-03-26T05:56:30.565Z,1006.14
2019-03-26T05:57:28.457Z,1006.21
2019-03-26T05:58:28.503Z,1006.23
2019-03-26T05:59:28.532Z,1006.28
2019-03-26T06:00:28.579Z,1006.27
2019-03-26T06:01:28.607Z,1006.28
2019-03-26T06:02:28.643Z,1006.28
2019-03-26T06:03:28.681Z,1006.30
2019-03-26T06:04:28.718Z,1006.29
2019-03-26T06:05:28.755Z,1006.33
2019-03-26T06:06:28.794Z,1006.35
2019-03-26T06:07:31.197Z,1006.34
2019-03-26T06:08:28.876Z,1006.33
2019-03-26T06:09:28.905Z,1006.38
2019-03-26T06:10:28.943Z,1006.42
2019-03-26T06:11:28.981Z,1006.40
2019-03-26T06:12:29.021Z,1006.39
2019-03-26T06:13:29.056Z,1006.40
2019-03-26T06:14:29.103Z,1006.42
2019-03-26T06:15:29.132Z,1006.42
2019-03-26T06:16:38.230Z,1006.44
2019-03-26T06:17:29.214Z,1006.46
2019-03-26T06:18:29.242Z,1006.50
2019-03-26T06:19:29.301Z,1006.55
2019-03-26T06:20:29.317Z,1006.59
2019-03-26T06:21:29.355Z,1006.61
2019-03-26T06:22:29.395Z,1006.59
2019-03-26T06:23:29.430Z,1006.63
2019-03-26T06:24:29.467Z,1006.56
2019-03-26T06:25:29.506Z,1006.58
2019-03-26T06:26:29.551Z,1006.51
2019-03-26T06:27:29.581Z,1006.54
2019-03-26T06:28:29.618Z,1006.52
2019-03-26T06:29:29.655Z,1006.53
2019-03-26T06:30:29.695Z,1006.54
2019-03-26T06:31:29.739Z,1006.52
2019-03-26T06:32:29.767Z,1006.49
2019-03-26T06:33:29.814Z,1006.53
2019-03-26T06:34:29.844Z,1006.53
2019-03-26T06:35:29.882Z,1006.50
2019-03-26T06:36:29.926Z,1006.51
2019-03-26T06:37:29.955Z,1006.47
2019-03-26T06:38:29.993Z,1006.48
2019-03-26T06:39:30.033Z,1006.47
2019-03-26T06:40:30.132Z,1006.52
2019-03-26T06:41:30.111Z,1006.59
2019-03-26T06:42:30.145Z,1006.59
2019-03-26T06:43:30.181Z,1006.64
2019-03-26T06:44:30.217Z,1006.64
2019-03-26T06:45:30.255Z,1006.70
2019-03-26T06:46:30.294Z,1006.71
2019-03-26T06:47:30.331Z,1006.75
2019-03-26T06:48:30.369Z,1006.74
2019-03-26T06:49:30.415Z,1006.77
2019-03-26T06:50:30.446Z,1006.75
2019-03-26T06:51:30.483Z,1006.77
2019-03-26T06:52:30.519Z,1006.71
2019-03-26T06:53:30.556Z,1006.70
2019-03-26T06:54:30.594Z,1006.74
2019-03-26T06:55:30.637Z,1006.71
2019-03-26T06:56:30.669Z,1006.77
2019-03-26T06:57:35.926Z,1006.78
2019-03-26T06:58:30.750Z,1006.79
2019-03-26T06:59:30.786Z,1006.75
2019-03-26T07:00:30.821Z,1006.77
2019-03-26T07:01:30.863Z,1006.78
2019-03-26T07:02:30.900Z,1006.76
2019-03-26T07:03:30.934Z,1006.79
2019-03-26T07:04:30.970Z,1006.81
2019-03-26T07:05:31.009Z,1006.83
2019-03-26T07:06:31.047Z,1006.86
2019-03-26T07:07:32.079Z,1006.88
2019-03-26T07:08:31.121Z,1006.92
2019-03-26T07:09:31.159Z,1006.90
2019-03-26T07:10:31.198Z,1006.94
2019-03-26T07:11:31.236Z,1006.96
2019-03-26T07:12:31.276Z,1006.97
2019-03-26T07:13:31.310Z,1007.09
2019-03-26T07:14:31.348Z,1007.06
2019-03-26T07:15:31.386Z,1007.08
2019-03-26T07:16:31.433Z,1007.17
2019-03-26T07:17:31.461Z,1007.17
2019-03-26T07:18:31.499Z,1007.14
2019-03-26T07:19:31.536Z,1007.09
2019-03-26T07:20:31.577Z,1007.08
2019-03-26T07:21:31.611Z,1007.17
2019-03-26T07:22:31.665Z,1007.18
2019-03-26T07:23:31.688Z,1007.22
2019-03-26T07:24:31.725Z,1007.24
2019-03-26T07:25:31.761Z,1007.25
2019-03-26T07:26:31.797Z,1007.20
2019-03-26T07:27:31.842Z,1007.20
2019-03-26T07:28:31.872Z,1007.13
2019-03-26T07:29:31.913Z,1007.18
2019-03-26T07:30:31.948Z,1007.17
2019-03-26T07:31:32.002Z,1007.16
2019-03-26T07:32:32.026Z,1007.15
2019-03-26T07:33:32.061Z,1007.15
2019-03-26T07:34:32.114Z,1007.14
2019-03-26T07:35:32.137Z,1007.17
2019-03-26T07:36:32.173Z,1007.19
2019-03-26T07:37:44.488Z,1007.23
2019-03-26T07:38:32.256Z,1007.20
2019-03-26T07:39:32.294Z,1007.22
2019-03-26T07:40:32.323Z,1007.21
2019-03-26T07:41:32.361Z,1007.18
2019-03-26T07:42:32.405Z,1007.19
2019-03-26T07:43:32.495Z,1007.19
2019-03-26T07:44:32.472Z,1007.19
2019-03-26T07:45:32.509Z,1007.17
2019-03-26T07:46:32.592Z,1007.20
2019-03-26T07:47:32.586Z,1007.22
2019-03-26T07:48:32.627Z,1007.18
2019-03-26T07:49:32.662Z,1007.14
2019-03-26T07:50:32.698Z,1007.11
2019-03-26T07:51:32.744Z,1007.11
2019-03-26T07:52:32.777Z,1007.06
2019-03-26T07:53:32.817Z,1007.06
2019-03-26T07:54:32.849Z,1007.09
2019-03-26T07:55:32.886Z,1007.10
2019-03-26T07:56:32.925Z,1007.09
2019-03-26T07:57:32.968Z,1007.10
2019-03-26T07:58:33.413Z,1007.17
2019-03-26T07:59:33.035Z,1007.16
2019-03-26T08:00:33.074Z,1007.18
2019-03-26T08:01:33.111Z,1007.20
2019-03-26T08:02:33.151Z,1007.26
2019-03-26T08:03:33.186Z,1007.27
2019-03-26T08:04:33.275Z,1007.29
2019-03-26T08:05:33.279Z,1007.32
2019-03-26T08:06:33.299Z,1007.28
2019-03-26T08:07:33.350Z,1007.36
2019-03-26T08:08:33.375Z,1007.29
2019-03-26T08:09:33.530Z,1007.31
2019-03-26T08:10:33.523Z,1007.32
2019-03-26T08:11:33.502Z,1007.35
2019-03-26T08:12:33.524Z,1007.32
2019-03-26T08:13:33.596Z,1007.32
2019-03-26T08:14:33.603Z,1007.33
2019-03-26T08:15:33.675Z,1007.34
2019-03-26T08:16:33.685Z,1007.27
2019-03-26T08:17:33.734Z,1007.24
2019-03-26T08:18:33.752Z,1007.25
2019-03-26T08:19:33.789Z,1007.28
2019-03-26T08:20:33.827Z,1007.30
2019-03-26T08:21:33.879Z,1007.29
2019-03-26T08:22:33.903Z,1007.44
2019-03-26T08:23:33.958Z,1007.38
2019-03-26T08:24:33.979Z,1007.36
2019-03-26T08:25:34.174Z,1007.42
2019-03-26T08:26:34.053Z,1007.46
2019-03-26T08:27:34.091Z,1007.48
2019-03-26T08:28:34.127Z,1007.51
2019-03-26T08:29:34.164Z,1007.47
2019-03-26T08:30:34.203Z,1007.47
2019-03-26T08:31:34.243Z,1007.46
2019-03-26T08:32:36.915Z,1007.50
2019-03-26T08:33:34.321Z,1007.52
2019-03-26T08:34:34.354Z,1007.56
2019-03-26T08:35:34.429Z,1007.58
2019-03-26T08:36:34.433Z,1007.56
2019-03-26T08:37:34.469Z,1007.61
2019-03-26T08:38:34.507Z,1007.58
2019-03-26T08:39:34.551Z,1007.53
2019-03-26T08:40:34.583Z,1007.54
2019-03-26T08:41:34.622Z,1007.52
2019-03-26T08:42:34.662Z,1007.59
2019-03-26T08:43:34.696Z,1007.60
2019-03-26T08:44:34.735Z,1007.58
2019-03-26T08:45:34.772Z,1007.64
2019-03-26T08:46:34.812Z,1007.73
2019-03-26T08:47:34.850Z,1007.69
2019-03-26T08:48:34.890Z,1007.73
2019-03-26T08:49:34.927Z,1007.73
2019-03-26T08:50:34.966Z,1007.81
2019-03-26T08:51:35.010Z,1007.76
2019-03-26T08:52:35.039Z,1007.77
2019-03-26T08:53:35.078Z,1007.77
2019-03-26T08:54:35.125Z,1007.78
2019-03-26T08:55:35.155Z,1007.81
2019-03-26T08:56:35.193Z,1007.76
2019-03-26T08:57:35.235Z,1007.77
2019-03-26T08:58:35.269Z,1007.79
2019-03-26T08:59:35.311Z,1007.87
2019-03-26T09:00:35.367Z,1007.89
2019-03-26T09:01:35.386Z,1007.92
2019-03-26T09:02:35.434Z,1007.90
2019-03-26T09:03:35.468Z,1007.92
2019-03-26T09:04:35.502Z,1007.97
2019-03-26T09:05:35.535Z,1007.98
2019-03-26T09:06:35.574Z,1008.00
2019-03-26T09:07:35.613Z,1008.01
2019-03-26T09:08:35.651Z,1008.01
2019-03-26T09:09:35.689Z,1008.04
2019-03-26T09:10:35.730Z,1008.05
2019-03-26T09:11:35.772Z,1008.00
2019-03-26T09:12:35.805Z,1007.95
2019-03-26T09:13:35.854Z,1007.94
2019-03-26T09:14:35.881Z,1007.93
2019-03-26T09:15:35.926Z,1007.91
2019-03-26T09:16:35.960Z,1007.93
2019-03-26T09:17:35.993Z,1007.96
2019-03-26T09:18:36.050Z,1007.89
2019-03-26T09:19:36.081Z,1007.89
2019-03-26T09:20:36.110Z,1007.87
2019-03-26T09:21:36.149Z,1007.88
2019-03-26T09:22:36.188Z,1007.87
2019-03-26T09:23:36.226Z,1007.92
2019-03-26T09:24:36.266Z,1007.84
2019-03-26T09:25:36.313Z,1007.93
2019-03-26T09:26:36.342Z,1007.91
2019-03-26T09:27:36.390Z,1007.92
2019-03-26T09:28:36.415Z,1007.89
2019-03-26T09:29:36.470Z,1007.83
2019-03-26T09:30:36.493Z,1007.91
2019-03-26T09:31:36.532Z,1007.91
2019-03-26T09:32:36.570Z,1007.90
2019-03-26T09:33:36.608Z,1007.93
2019-03-26T09:34:36.696Z,1007.92
2019-03-26T09:35:36.684Z,1007.92
2019-03-26T09:36:36.723Z,1007.91
2019-03-26T09:37:36.765Z,1007.99
2019-03-26T09:38:39.007Z,1008.02
2019-03-26T09:39:38.362Z,1008.04
2019-03-26T09:40:36.876Z,1008.07
2019-03-26T09:41:36.922Z,1008.03
2019-03-26T09:42:36.957Z,1007.93
2019-03-26T09:43:36.992Z,1007.86
2019-03-26T09:44:37.042Z,1007.84
2019-03-26T09:45:37.067Z,1007.83
2019-03-26T09:46:37.107Z,1007.80
2019-03-26T09:47:37.144Z,1007.76
2019-03-26T09:48:37.232Z,1007.76
2019-03-26T09:49:37.231Z,1007.77
2019-03-26T09:50:37.261Z,1007.74
2019-03-26T09:51:37.298Z,1007.73
2019-03-26T09:52:37.336Z,1007.73
2019-03-26T09:53:37.376Z,1007.69
2019-03-26T09:54:37.496Z,1007.64
2019-03-26T09:55:37.455Z,1007.51
2019-03-26T09:56:37.491Z,1007.41
2019-03-26T09:57:37.530Z,1007.33
2019-03-26T09:58:37.571Z,1007.32
2019-03-26T09:59:37.608Z,1007.34
2019-03-26T10:00:37.783Z,1007.22
2019-03-26T10:01:37.703Z,1007.26
2019-03-26T10:02:37.732Z,1007.20
2019-03-26T10:03:37.761Z,1007.23
2019-03-26T10:04:37.806Z,1007.25
2019-03-26T10:05:37.836Z,1007.25
2019-03-26T10:06:37.876Z,1007.24
2019-03-26T10:07:37.915Z,1007.26
2019-03-26T10:08:51.504Z,1007.26
2019-03-26T10:09:37.993Z,1007.31
2019-03-26T10:10:38.029Z,1007.42
2019-03-26T10:11:38.075Z,1007.32
2019-03-26T10:12:38.107Z,1007.33
2019-03-26T10:13:38.148Z,1007.39
2019-03-26T10:14:38.189Z,1007.39
2019-03-26T10:15:38.224Z,1007.45
2019-03-26T10:16:38.259Z,1007.32
2019-03-26T10:17:38.303Z,1007.27
2019-03-26T10:18:38.340Z,1007.29
2019-03-26T10:19:38.380Z,1007.31
2019-03-26T10:20:38.417Z,1007.40
2019-03-26T10:21:38.458Z,1007.31
2019-03-26T10:22:38.503Z,1007.28
2019-03-26T10:23:38.535Z,1007.31
2019-03-26T10:24:38.575Z,1007.34
2019-03-26T10:25:38.615Z,1007.35
2019-03-26T10:26:38.656Z,1007.26
2019-03-26T10:27:38.693Z,1007.37
2019-03-26T10:28:38.734Z,1007.37
2019-03-26T10:29:38.774Z,1007.37
2019-03-26T10:30:38.822Z,1007.37
2019-03-26T10:31:38.850Z,1007.29
2019-03-26T10:32:38.889Z,1007.27
2019-03-26T10:33:38.930Z,1007.25
2019-03-26T10:34:38.978Z,1007.33
2019-03-26T10:35:39.010Z,1007.34
2019-03-26T10:36:41.446Z,1007.33
2019-03-26T10:37:39.090Z,1007.24
2019-03-26T10:38:39.129Z,1007.18
2019-03-26T10:39:39.170Z,1007.16
2019-03-26T10:40:39.208Z,1007.14
2019-03-26T10:41:39.253Z,1007.20
2019-03-26T10:42:39.290Z,1007.27
2019-03-26T10:43:39.329Z,1007.27
2019-03-26T10:44:39.369Z,1007.25
2019-03-26T10:45:39.410Z,1007.31
2019-03-26T10:46:39.448Z,1007.26
2019-03-26T10:47:39.498Z,1007.33
2019-03-26T10:48:39.529Z,1007.33
2019-03-26T10:49:39.575Z,1007.30
2019-03-26T10:50:39.609Z,1007.40
2019-03-26T10:51:39.650Z,1007.43
2019-03-26T10:52:39.696Z,1007.45
2019-03-26T10:53:39.727Z,1007.38
2019-03-26T10:54:39.790Z,1007.43
2019-03-26T10:55:39.819Z,1007.46
2019-03-26T10:56:39.852Z,1007.40
2019-03-26T10:57:39.889Z,1007.43
2019-03-26T10:58:39.929Z,1007.43
2019-03-26T10:59:39.978Z,1007.44
2019-03-26T11:00:40.016Z,1007.36
2019-03-26T11:01:40.100Z,1007.32
2019-03-26T11:02:40.092Z,1007.18
2019-03-26T11:03:40.133Z,1007.17
2019-03-26T11:04:40.172Z,1007.12
2019-03-26T11:05:40.215Z,1007.05
2019-03-26T11:06:40.258Z,1007.06
2019-03-26T11:07:42.687Z,1007.00
2019-03-26T11:08:40.334Z,1007.03
2019-03-26T11:09:40.374Z,1007.00
2019-03-26T11:10:40.417Z,1006.97
2019-03-26T11:11:40.457Z,1006.94
2019-03-26T11:12:40.497Z,1007.02
2019-03-26T11:13:40.539Z,1006.97
2019-03-26T11:14:40.579Z,1006.93
2019-03-26T11:15:40.629Z,1007.04
2019-03-26T11:16:40.660Z,1007.05
2019-03-26T11:17:40.709Z,1007.11
2019-03-26T11:18:40.743Z,1007.12
2019-03-26T11:19:40.782Z,1007.14
2019-03-26T11:20:40.823Z,1007.10
2019-03-26T11:21:40.873Z,1006.95
2019-03-26T11:22:40.966Z,1006.90
2019-03-26T11:23:40.947Z,1006.89
2019-03-26T11:24:40.989Z,1006.90
2019-03-26T11:25:41.033Z,1006.93
2019-03-26T11:26:41.072Z,1006.94
2019-03-26T11:27:41.111Z,1006.84
2019-03-26T11:28:41.164Z,1006.84
2019-03-26T11:29:41.305Z,1006.82
2019-03-26T11:30:41.234Z,1006.81
2019-03-26T11:31:41.272Z,1006.74
2019-03-26T11:32:41.313Z,1006.80
2019-03-26T11:33:41.352Z,1006.80
2019-03-26T11:34:41.399Z,1006.77
2019-03-26T11:35:41.461Z,1006.84
2019-03-26T11:36:41.489Z,1006.79
2019-03-26T11:37:41.518Z,1006.85
2019-03-26T11:38:41.561Z,1006.84
2019-03-26T11:39:41.597Z,1006.84
2019-03-26T11:40:41.643Z,1006.85
2019-03-26T11:41:41.679Z,1006.83
2019-03-26T11:42:41.727Z,1006.83
2019-03-26T11:43:41.759Z,1006.86
2019-03-26T11:44:41.804Z,1007.01
2019-03-26T11:45:41.849Z,1006.99
2019-03-26T11:46:41.901Z,1006.88
2019-03-26T11:47:41.924Z,1006.87
2019-03-26T11:48:41.963Z,1006.88
2019-03-26T11:49:42.005Z,1006.82
2019-03-26T11:50:42.059Z,1006.87
2019-03-26T11:51:42.088Z,1006.84
2019-03-26T11:52:42.126Z,1006.89
2019-03-26T11:53:42.169Z,1006.83
2019-03-26T11:54:42.213Z,1006.82
2019-03-26T11:55:42.248Z,1006.86
2019-03-26T11:56:42.336Z,1006.85
2019-03-26T11:57:42.329Z,1006.91
2019-03-26T11:58:42.373Z,1006.95
2019-03-26T11:59:42.421Z,1006.81
2019-03-26T12:00:42.454Z,1006.81
2019-03-26T12:01:42.490Z,1006.75
2019-03-26T12:02:42.562Z,1006.75
2019-03-26T12:03:42.592Z,1006.77
2019-03-26T12:04:42.613Z,1006.74
2019-03-26T12:05:42.675Z,1006.75